createdAt,value
2023-07-04T00:01:26.586Z,23.33
2023-07-04T00:03:58.312Z,23.30
2023-07-04T00:06:30.433Z,23.23
2023-07-04T00:08:58.676Z,23.23
2023-07-04T00:11:26.770Z,23.23
2023-07-04T00:13:55.066Z,23.23
2023-07-04T00:18:51.766Z,23.12
2023-07-04T00:21:21.680Z,23.05
2023-07-04T00:23:54.800Z,23.01
2023-07-04T00:26:24.967Z,23.00
2023-07-04T00:28:53.519Z,22.96
2023-07-04T00:31:25.012Z,22.97
2023-07-04T00:33:54.373Z,22.98
2023-07-04T00:36:24.381Z,22.92
2023-07-04T00:38:58.083Z,22.85
2023-07-04T00:41:30.083Z,22.85
2023-07-04T00:44:08.951Z,22.83
2023-07-04T00:46:40.691Z,22.83
2023-07-04T00:49:24.013Z,22.82
2023-07-04T00:52:02.101Z,22.82
2023-07-04T00:54:34.145Z,22.82
2023-07-04T00:57:04.207Z,22.88
2023-07-04T00:59:34.753Z,22.91
2023-07-04T01:02:03.163Z,22.93
2023-07-04T01:04:34.418Z,22.94
2023-07-04T01:07:16.889Z,22.97
2023-07-04T01:09:51.005Z,22.97
2023-07-04T01:12:19.818Z,22.93
2023-07-04T01:14:49.378Z,22.91
2023-07-04T01:17:17.468Z,22.88
2023-07-04T01:19:46.738Z,22.85
2023-07-04T01:22:28.895Z,22.81
2023-07-04T01:25:06.660Z,22.76
2023-07-04T01:27:38.233Z,22.70
2023-07-04T01:30:13.489Z,22.66
2023-07-04T01:32:43.612Z,22.56
2023-07-04T01:35:14.569Z,22.51
2023-07-04T01:37:42.804Z,22.47
2023-07-04T01:40:12.218Z,22.43
2023-07-04T01:42:42.227Z,22.41
2023-07-04T01:45:11.503Z,22.41
2023-07-04T01:47:40.466Z,22.42
2023-07-04T01:50:11.911Z,22.45
2023-07-04T01:52:41.283Z,22.45
2023-07-04T01:55:12.133Z,22.44
2023-07-04T01:57:42.435Z,22.40
2023-07-04T02:00:14.526Z,22.30
2023-07-04T02:02:43.588Z,22.25
2023-07-04T02:05:11.693Z,22.23
2023-07-04T02:07:39.722Z,22.20
2023-07-04T02:10:09.204Z,22.20
2023-07-04T02:12:37.297Z,22.16
2023-07-04T02:15:09.140Z,22.14
2023-07-04T02:17:37.678Z,22.14
2023-07-04T02:20:06.904Z,22.14
2023-07-04T02:22:35.150Z,22.11
2023-07-04T02:25:04.115Z,22.10
2023-07-04T02:27:32.360Z,22.04
2023-07-04T02:30:00.505Z,22.04
2023-07-04T02:32:30.033Z,21.98
2023-07-04T02:34:58.135Z,21.87
2023-07-04T02:37:26.249Z,21.78
2023-07-04T02:39:55.721Z,21.75
2023-07-04T02:42:23.878Z,21.74
2023-07-04T02:44:52.645Z,21.78
2023-07-04T02:47:24.613Z,21.80
2023-07-04T02:49:54.320Z,21.79
2023-07-04T02:52:22.906Z,21.79
2023-07-04T02:54:51.014Z,21.78
2023-07-04T02:57:19.371Z,21.78
2023-07-04T02:59:48.100Z,21.77
2023-07-04T03:02:16.255Z,21.76
2023-07-04T03:04:44.953Z,21.77
2023-07-04T03:07:14.428Z,21.77
2023-07-04T03:09:43.212Z,21.72
2023-07-04T03:12:11.447Z,21.63
2023-07-04T03:14:39.586Z,21.56
2023-07-04T03:17:07.740Z,21.49
2023-07-04T03:19:36.020Z,21.45
2023-07-04T03:22:04.119Z,21.39
2023-07-04T03:24:33.580Z,21.37
2023-07-04T03:27:01.791Z,21.27
2023-07-04T03:29:29.992Z,21.24
2023-07-04T03:31:58.055Z,21.24
2023-07-04T03:34:26.090Z,21.23
2023-07-04T03:36:54.132Z,21.20
2023-07-04T03:39:22.210Z,21.10
2023-07-04T03:41:51.759Z,21.01
2023-07-04T03:44:19.824Z,20.95
2023-07-04T03:46:47.939Z,20.97
2023-07-04T03:49:16.091Z,20.97
2023-07-04T03:51:45.764Z,20.95
2023-07-04T03:54:15.669Z,21.00
2023-07-04T03:56:43.811Z,21.05
2023-07-04T03:59:13.293Z,21.03
2023-07-04T04:01:41.438Z,21.03
2023-07-04T04:04:09.706Z,21.05
2023-07-04T04:06:37.961Z,21.03
2023-07-04T04:09:06.061Z,20.99
2023-07-04T04:11:34.080Z,20.93
2023-07-04T04:14:02.267Z,20.85
2023-07-04T04:16:31.788Z,20.74
2023-07-04T04:19:00.074Z,20.68
2023-07-04T04:21:28.148Z,20.63
2023-07-04T04:23:56.585Z,20.64
2023-07-04T04:26:25.609Z,20.64
2023-07-04T04:28:54.611Z,20.64
2023-07-04T04:31:23.118Z,20.63
2023-07-04T04:33:52.697Z,20.65
2023-07-04T04:36:21.905Z,20.70
2023-07-04T04:38:50.810Z,20.82
2023-07-04T04:41:18.883Z,20.94
2023-07-04T04:43:51.443Z,21.07
2023-07-04T04:46:19.929Z,21.18
2023-07-04T04:48:48.114Z,21.26
2023-07-04T04:51:17.698Z,21.33
2023-07-04T04:53:46.635Z,21.41
2023-07-04T04:56:14.885Z,21.49
2023-07-04T04:58:45.138Z,21.62
2023-07-04T05:01:17.071Z,21.77
2023-07-04T05:03:45.273Z,21.89
2023-07-04T05:06:14.259Z,22.04
2023-07-04T05:08:44.418Z,22.18
2023-07-04T05:11:12.536Z,22.32
2023-07-04T05:13:41.353Z,22.48
2023-07-04T05:16:12.985Z,22.60
2023-07-04T05:18:42.289Z,22.70
2023-07-04T05:21:12.461Z,22.77
2023-07-04T05:23:43.024Z,22.89
2023-07-04T05:26:15.055Z,23.12
2023-07-04T05:28:43.551Z,23.32
2023-07-04T05:31:16.345Z,23.52
2023-07-04T05:33:44.909Z,23.68
2023-07-04T05:36:16.115Z,23.89
2023-07-04T05:38:45.061Z,24.12
2023-07-04T05:41:16.747Z,24.33
2023-07-04T05:43:45.795Z,24.49
2023-07-04T05:46:14.719Z,24.63
2023-07-04T05:48:43.172Z,24.77
2023-07-04T05:51:13.028Z,24.90
2023-07-04T05:53:43.113Z,24.97
2023-07-04T05:56:13.845Z,25.06
2023-07-04T05:58:45.011Z,25.24
2023-07-04T06:01:16.146Z,25.43
2023-07-04T06:03:45.470Z,25.58
2023-07-04T06:06:19.748Z,25.71
2023-07-04T06:08:48.236Z,25.80
2023-07-04T06:11:17.384Z,25.90
2023-07-04T06:13:47.208Z,26.00
2023-07-04T06:16:15.802Z,26.08
2023-07-04T06:18:44.778Z,26.14
2023-07-04T06:21:14.788Z,26.25
2023-07-04T06:23:44.296Z,26.33
2023-07-04T06:26:13.589Z,26.39
2023-07-04T06:28:43.230Z,26.44
2023-07-04T06:31:16.110Z,26.50
2023-07-04T06:33:44.696Z,26.58
2023-07-04T06:36:15.036Z,26.65
2023-07-04T06:38:43.507Z,26.72
2023-07-04T06:41:13.635Z,26.83
2023-07-04T06:43:44.665Z,26.91
2023-07-04T06:46:15.883Z,27.02
2023-07-04T06:48:44.608Z,27.10
2023-07-04T06:51:14.880Z,27.19
2023-07-04T06:53:43.716Z,27.25
2023-07-04T06:56:13.810Z,27.29
2023-07-04T06:58:44.018Z,27.37
2023-07-04T07:01:14.009Z,27.47
2023-07-04T07:03:42.786Z,27.51
2023-07-04T07:06:12.647Z,27.52
2023-07-04T07:08:41.107Z,27.45
2023-07-04T07:11:12.654Z,27.32
2023-07-04T07:13:41.474Z,27.28
2023-07-04T07:16:11.824Z,27.29
2023-07-04T07:18:43.145Z,27.37
2023-07-04T07:21:14.652Z,27.49
2023-07-04T07:23:43.212Z,27.61
2023-07-04T07:26:13.509Z,27.81
2023-07-04T07:28:42.272Z,28.04
2023-07-04T07:31:13.792Z,28.30
2023-07-04T07:33:46.775Z,28.50
2023-07-04T07:36:17.263Z,28.57
2023-07-04T07:38:45.522Z,28.67
2023-07-04T07:41:14.129Z,28.85
2023-07-04T07:43:43.444Z,29.00
2023-07-04T07:46:12.770Z,29.14
2023-07-04T07:48:41.552Z,29.22
2023-07-04T07:51:13.648Z,29.32
2023-07-04T07:53:43.635Z,29.36
2023-07-04T07:56:15.400Z,29.32
2023-07-04T07:58:44.218Z,29.24
2023-07-04T08:01:13.663Z,29.25
2023-07-04T08:03:42.352Z,29.39
2023-07-04T08:06:21.338Z,29.58
2023-07-04T08:08:49.868Z,29.67
2023-07-04T08:11:18.771Z,29.76
2023-07-04T08:13:47.475Z,29.81
2023-07-04T08:16:19.853Z,29.77
2023-07-04T08:18:48.491Z,29.79
2023-07-04T08:21:18.823Z,29.76
2023-07-04T08:23:47.344Z,29.74
2023-07-04T08:26:20.793Z,29.89
2023-07-04T08:28:49.429Z,30.04
2023-07-04T08:31:20.249Z,30.15
2023-07-04T08:33:49.081Z,30.31
2023-07-04T08:36:20.260Z,30.35
2023-07-04T08:38:50.271Z,30.19
2023-07-04T08:41:30.298Z,29.91
2023-07-04T08:44:02.923Z,29.87
2023-07-04T08:46:37.442Z,29.91
2023-07-04T08:49:06.407Z,29.84
2023-07-04T08:51:41.214Z,29.68
2023-07-04T08:54:14.113Z,29.60
2023-07-04T08:56:42.842Z,29.48
2023-07-04T08:59:18.400Z,29.31
2023-07-04T09:02:07.732Z,29.18
2023-07-04T09:04:48.949Z,29.09
2023-07-04T09:07:26.471Z,28.99
2023-07-04T09:10:03.775Z,29.06
2023-07-04T09:12:37.066Z,29.29
2023-07-04T09:15:16.253Z,29.63
2023-07-04T09:17:51.123Z,29.90
2023-07-04T09:20:19.806Z,30.12
2023-07-04T09:22:49.358Z,30.32
2023-07-04T09:25:17.560Z,30.53
2023-07-04T09:27:45.872Z,30.56
2023-07-04T09:30:15.694Z,30.53
2023-07-04T09:32:44.657Z,30.60
2023-07-04T09:35:13.583Z,30.69
2023-07-04T09:38:04.529Z,30.89
2023-07-04T09:40:45.112Z,31.09
2023-07-04T09:43:14.199Z,31.24
2023-07-04T09:45:42.755Z,31.44
2023-07-04T09:48:12.247Z,31.61
2023-07-04T09:50:40.762Z,31.74
2023-07-04T09:53:12.244Z,31.77
2023-07-04T09:55:42.198Z,31.84
2023-07-04T09:58:20.827Z,31.84
2023-07-04T10:01:08.024Z,31.89
2023-07-04T10:03:36.198Z,31.95
2023-07-04T10:06:05.273Z,31.72
2023-07-04T10:08:50.390Z,31.57
2023-07-04T10:11:26.688Z,31.61
2023-07-04T10:14:02.014Z,31.46
2023-07-04T10:16:30.197Z,31.40
2023-07-04T10:19:05.495Z,31.21
2023-07-04T10:21:33.566Z,31.01
2023-07-04T10:24:04.507Z,30.97
2023-07-04T17:20:32.526Z,31.12
2023-07-04T17:23:00.705Z,31.12
2023-07-04T17:25:28.918Z,31.10
2023-07-04T17:27:58.794Z,31.07
2023-07-04T17:30:27.392Z,31.03
2023-07-04T17:32:55.712Z,30.95
2023-07-04T17:35:24.126Z,30.88
2023-07-04T17:37:53.682Z,30.84
2023-07-04T17:40:21.900Z,30.78
2023-07-04T17:42:50.150Z,30.75
2023-07-04T17:45:18.602Z,30.70
2023-07-04T17:47:46.831Z,30.65
2023-07-04T17:50:17.271Z,30.57
2023-07-04T17:52:45.636Z,30.49
2023-07-04T17:55:16.270Z,30.33
2023-07-04T17:57:44.922Z,30.27
2023-07-04T18:00:14.085Z,30.17
2023-07-04T18:02:42.862Z,30.09
2023-07-04T18:05:11.679Z,29.97
2023-07-04T18:07:39.892Z,29.87
2023-07-04T18:10:08.917Z,29.80
2023-07-04T18:12:39.021Z,29.71
2023-07-04T18:15:08.247Z,29.62
2023-07-04T18:17:36.478Z,29.54
2023-07-04T18:20:05.519Z,29.46
2023-07-04T18:22:33.748Z,29.37
2023-07-04T18:25:01.961Z,29.25
2023-07-04T18:27:30.812Z,29.11
2023-07-04T18:30:00.911Z,28.95
2023-07-04T18:32:29.328Z,28.87
2023-07-04T18:34:57.516Z,28.76
2023-07-04T18:37:27.287Z,28.65
2023-07-04T18:39:55.551Z,28.55
2023-07-04T18:42:23.817Z,28.49
2023-07-04T18:44:51.965Z,28.48
2023-07-04T18:47:21.532Z,28.46
2023-07-04T18:49:51.766Z,28.47
2023-07-04T18:52:19.998Z,28.44
2023-07-04T18:54:48.193Z,28.39
2023-07-04T18:57:16.416Z,28.32
2023-07-04T18:59:45.181Z,28.27
2023-07-04T19:02:13.579Z,28.24
2023-07-04T19:04:43.244Z,28.21
2023-07-04T19:07:11.459Z,28.19
2023-07-04T19:09:40.129Z,28.11
2023-07-04T19:12:10.135Z,28.04
2023-07-04T19:14:38.304Z,28.02
2023-07-04T19:17:07.389Z,28.01
2023-07-04T19:19:40.629Z,27.96
2023-07-04T19:22:13.197Z,27.82
2023-07-04T19:24:42.811Z,27.77
2023-07-04T19:27:15.675Z,27.80
2023-07-04T19:29:45.080Z,27.84
2023-07-04T19:32:14.247Z,27.84
2023-07-04T19:34:42.750Z,27.79
2023-07-04T19:37:13.998Z,27.58
2023-07-04T19:39:44.037Z,27.54
2023-07-04T19:42:13.128Z,27.56
2023-07-04T19:44:41.293Z,27.61
2023-07-04T19:47:09.654Z,27.64
2023-07-04T19:49:39.037Z,27.66
2023-07-04T19:52:08.433Z,27.61
2023-07-04T19:54:38.068Z,27.55
2023-07-04T19:57:07.151Z,27.47
2023-07-04T19:59:35.425Z,27.38
2023-07-04T20:02:04.034Z,27.37
2023-07-04T20:04:33.851Z,27.37
2023-07-04T20:07:02.053Z,27.28
2023-07-04T20:09:30.733Z,27.13
2023-07-04T20:12:00.829Z,26.95
2023-07-04T20:14:30.369Z,26.91
2023-07-04T20:16:59.691Z,26.85
2023-07-04T20:19:27.861Z,26.82
2023-07-04T20:21:56.334Z,26.82
2023-07-04T20:24:24.540Z,26.80
2023-07-04T20:26:52.715Z,26.82
2023-07-04T20:29:22.219Z,26.81
2023-07-04T20:31:50.517Z,26.78
2023-07-04T20:34:18.801Z,26.74
2023-07-04T20:36:47.009Z,26.74
2023-07-04T20:39:15.281Z,26.74
2023-07-04T20:41:43.516Z,26.73
2023-07-04T20:44:11.664Z,26.67
2023-07-04T20:46:41.282Z,26.62
2023-07-04T20:49:09.818Z,26.54
2023-07-04T20:51:38.198Z,26.51
2023-07-04T20:54:08.846Z,26.47
2023-07-04T20:56:37.009Z,26.45
2023-07-04T20:59:05.292Z,26.46
2023-07-04T21:01:33.954Z,26.43
2023-07-04T21:04:03.612Z,26.38
2023-07-04T21:06:31.819Z,26.34
2023-07-04T21:09:00.966Z,26.28
2023-07-04T21:11:29.104Z,26.24
2023-07-04T21:13:57.310Z,26.26
2023-07-04T21:16:25.640Z,26.27
2023-07-04T21:18:53.924Z,26.23
2023-07-04T21:21:23.557Z,26.17
2023-07-04T21:23:51.730Z,26.08
2023-07-04T21:26:20.712Z,26.04
2023-07-04T21:28:48.860Z,25.99
2023-07-04T21:31:17.205Z,26.00
2023-07-04T21:33:45.724Z,26.03
2023-07-04T21:36:13.964Z,26.04
2023-07-04T21:38:45.222Z,26.03
2023-07-04T21:41:13.502Z,26.03
2023-07-04T21:43:41.804Z,25.99
2023-07-04T21:46:11.332Z,25.99
2023-07-04T21:48:40.744Z,25.96
2023-07-04T21:51:09.988Z,25.93
2023-07-04T21:53:38.708Z,25.85
2023-07-04T21:56:09.018Z,25.73
2023-07-04T21:58:37.209Z,25.71
2023-07-04T22:01:06.510Z,25.71
2023-07-04T22:03:36.222Z,25.76
2023-07-04T22:06:05.863Z,25.77
2023-07-04T22:08:35.745Z,25.79
2023-07-04T22:11:04.506Z,25.83
2023-07-04T22:13:35.624Z,25.81
2023-07-04T22:16:04.082Z,25.80
2023-07-04T22:18:33.223Z,25.77
2023-07-04T22:21:05.042Z,25.75
2023-07-04T22:23:33.897Z,25.70
2023-07-04T22:26:02.122Z,25.65
2023-07-04T22:28:31.801Z,25.60
2023-07-04T22:31:03.707Z,25.58
2023-07-04T22:33:34.317Z,25.54
2023-07-04T22:36:02.747Z,25.52
2023-07-04T22:38:30.991Z,25.48
2023-07-04T22:40:59.094Z,25.45
2023-07-04T22:43:27.388Z,25.42
2023-07-04T22:45:57.496Z,25.41
2023-07-04T22:48:28.224Z,25.40
2023-07-04T22:51:01.086Z,25.40
2023-07-04T22:53:30.045Z,25.37
2023-07-04T22:55:58.672Z,25.37
2023-07-04T22:58:27.805Z,25.38
2023-07-04T23:00:55.943Z,25.37
2023-07-04T23:03:24.321Z,25.33
2023-07-04T23:05:54.343Z,25.32
2023-07-04T23:08:22.667Z,25.29
2023-07-04T23:10:50.791Z,25.25
2023-07-04T23:13:19.108Z,25.23
2023-07-04T23:15:47.248Z,25.16
2023-07-04T23:18:15.510Z,25.10
2023-07-04T23:20:43.850Z,25.07
2023-07-04T23:23:13.558Z,25.02
2023-07-04T23:25:41.788Z,24.95
2023-07-04T23:28:10.011Z,24.84
2023-07-04T23:30:38.244Z,24.74
2023-07-04T23:33:06.469Z,24.66
2023-07-04T23:35:34.652Z,24.58
2023-07-04T23:38:02.801Z,24.52
2023-07-04T23:40:32.376Z,24.46
2023-07-04T23:43:00.655Z,24.42
2023-07-04T23:45:28.866Z,24.36
2023-07-04T23:47:57.037Z,24.35
2023-07-04T23:50:26.785Z,24.37
2023-07-04T23:52:54.896Z,24.38
2023-07-04T23:55:23.775Z,24.36
2023-07-04T23:57:53.411Z,24.33
